Aviation Digital Data Service (ADDS)

Output produced by TAFs form (1610 UTC 14 August 2018)
found at http://www.aviationweather.gov/adds/tafs/
 
KSSI 141553Z AUTO 22009KT 10SM CLR 31/23 A3005 RMK AO2 SLP177 T03060228
KSSI 141558Z 1416/1512 24009KT P6SM SCT035 BKN250 
     FM141800 16008KT P6SM VCTS SCT035CB BKN200 
     FM150000 19008KT P6SM VCSH SCT030 BKN120 
     FM150400 24003KT P6SM SCT100